Time;durP1;ratioP1;P1;durP2;ratioP2;P2;SDS_P1;SDS_P2;PMS_P1;PMS_P2;Temp;Humidity;BMP_temperature;BMP_pressure;BME280_temperature;BME280_humidity;BME280_pressure;Samples;Min_cycle;Max_cycle;Signal;HPM_P1;HPM_P2
2023/11/10 00:01:01;;;;;;;5.70;3.08;;;;;;;5.96;87.73;99884.41;6168122;28;20054;-75
2023/11/10 00:04:03;;;;;;;9.85;3.58;;;;;;;5.79;88.45;99882.53;6169495;28;20055;-76
2023/11/10 00:07:04;;;;;;;;;;;;;;;5.83;87.96;99882.31;6171542;28;20129;-75
2023/11/10 00:10:07;;;;;;;4.88;2.70;;;;;;;5.90;88.21;99874.28;6173108;28;20584;-76
2023/11/10 00:13:08;;;;;;;;;;;;;;;5.95;87.82;99869.75;6172235;28;20085;-72
2023/11/10 00:16:09;;;;;;;10.77;2.92;;;;;;;5.99;87.47;99871.28;6160507;28;19973;-72
2023/11/10 00:19:13;;;;;;;6.85;2.95;;;;;;;5.99;86.13;99873.88;6167150;28;20058;-76
2023/11/10 00:22:13;;;;;;;3.83;2.28;;;;;;;6.03;86.40;99871.09;6150853;28;20055;-76
2023/11/10 00:25:14;;;;;;;6.30;2.72;;;;;;;6.02;85.75;99861.66;6160954;28;20394;-73
2023/11/10 00:28:15;;;;;;;5.68;2.60;;;;;;;6.14;85.58;99862.84;6168617;28;20097;-72
2023/11/10 00:31:19;;;;;;;4.45;2.70;;;;;;;6.22;85.14;99873.69;6160106;28;20051;-76
2023/11/10 00:34:23;;;;;;;6.50;3.05;;;;;;;6.22;84.85;99860.75;6171379;28;20504;-75
2023/11/10 00:37:24;;;;;;;3.13;2.13;;;;;;;6.18;84.76;99854.03;6170015;28;20051;-73
2023/11/10 00:40:27;;;;;;;4.18;2.08;;;;;;;6.25;84.31;99862.34;6158062;28;20054;-76
2023/11/10 00:43:28;;;;;;;7.22;2.60;;;;;;;6.19;84.37;99858.28;6167733;28;20069;-72
2023/11/10 00:46:29;;;;;;;6.28;2.63;;;;;;;6.10;84.40;99853.53;6149890;28;20491;-72
2023/11/10 00:49:30;;;;;;;3.33;2.40;;;;;;;6.03;84.98;99858.16;6161810;28;20422;-75
2023/11/10 00:52:31;;;;;;;7.13;2.80;;;;;;;5.98;85.30;99859.28;6173034;28;20133;-76
2023/11/10 00:55:32;;;;;;;4.28;2.15;;;;;;;5.94;85.96;99850.75;6170459;28;20158;-76
2023/11/10 00:58:34;;;;;;;3.92;2.22;;;;;;;5.96;85.76;99850.72;6146205;28;20499;-76
2023/11/10 01:01:35;;;;;;;7.53;2.70;;;;;;;5.99;85.79;99832.44;6167191;28;20113;-75
2023/11/10 01:04:36;;;;;;;9.13;2.42;;;;;;;5.94;85.39;99822.28;6168514;28;20073;-75
2023/11/10 01:07:37;;;;;;;3.50;2.22;;;;;;;5.94;84.99;99814.50;6171940;28;20766;-75
2023/11/10 01:10:38;;;;;;;3.03;1.67;;;;;;;6.01;84.58;99825.44;6167541;28;20124;-76
2023/11/10 01:13:39;;;;;;;4.05;2.38;;;;;;;5.99;85.12;99820.34;6168377;28;20166;-73
2023/11/10 01:16:40;;;;;;;9.35;2.22;;;;;;;5.95;85.00;99818.81;6180010;28;20498;-76
2023/11/10 01:19:43;;;;;;;4.97;2.10;;;;;;;5.96;85.44;99828.25;6152850;28;20094;-73
2023/11/10 01:22:44;;;;;;;7.85;2.28;;;;;;;5.97;85.60;99819.59;6164121;28;20121;-72
2023/11/10 01:25:48;;;;;;;5.72;2.55;;;;;;;5.88;85.01;99812.19;6169723;28;20054;-72
2023/11/10 01:28:49;;;;;;;5.63;2.60;;;;;;;5.86;85.00;99801.91;6163008;28;20479;-73
2023/11/10 01:31:50;;;;;;;7.00;2.80;;;;;;;5.76;85.16;99798.03;6163206;28;20058;-73
2023/11/10 01:34:51;;;;;;;3.92;2.22;;;;;;;5.82;85.51;99795.16;6169703;28;20062;-72
2023/11/10 01:37:52;;;;;;;3.13;1.85;;;;;;;5.77;85.39;99796.31;6169974;28;20170;-75
2023/11/10 01:40:54;;;;;;;6.80;2.80;;;;;;;5.82;85.48;99791.75;6162717;28;20058;-73
2023/11/10 01:43:55;;;;;;;4.15;2.28;;;;;;;5.79;85.67;99797.09;6171045;28;20133;-76
2023/11/10 01:46:58;;;;;;;3.70;2.50;;;;;;;5.77;85.69;99793.72;6147984;28;20094;-76
2023/11/10 01:50:01;;;;;;;5.20;2.05;;;;;;;5.67;85.70;99787.28;6163039;28;20397;-76
2023/11/10 01:53:06;;;;;;;4.00;1.95;;;;;;;5.76;85.44;99786.84;6148323;28;20142;-73
2023/11/10 01:56:07;;;;;;;2.55;1.60;;;;;;;5.76;85.67;99779.91;6146933;28;20051;-76
2023/11/10 01:59:13;;;;;;;3.90;2.13;;;;;;;5.79;85.43;99779.78;6147320;28;20122;-72
2023/11/10 02:02:14;;;;;;;3.30;1.92;;;;;;;5.74;85.59;99776.56;6147451;28;20648;-73
2023/11/10 02:05:15;;;;;;;4.65;2.00;;;;;;;5.76;85.49;99784.25;6162364;28;20121;-73
2023/11/10 02:08:16;;;;;;;4.78;1.90;;;;;;;5.70;84.98;99780.19;6170804;28;20042;-72
2023/11/10 02:11:23;;;;;;;3.83;2.20;;;;;;;5.64;85.36;99776.16;6194698;28;20065;-75
2023/11/10 02:14:24;;;;;;;3.65;2.15;;;;;;;5.65;85.68;99772.66;6194890;28;20050;-76
2023/11/10 02:17:25;;;;;;;3.47;2.05;;;;;;;5.61;85.42;99768.50;6194914;28;20523;-72
2023/11/10 02:20:26;;;;;;;7.33;2.53;;;;;;;5.60;85.89;99766.00;6197012;28;20066;-73
2023/11/10 02:23:27;;;;;;;3.85;2.10;;;;;;;5.63;85.86;99766.69;6197739;28;20104;-73
2023/11/10 02:26:28;;;;;;;9.15;2.60;;;;;;;5.63;85.58;99763.28;6198995;28;20105;-73
2023/11/10 02:29:31;;;;;;;3.63;1.85;;;;;;;5.60;85.45;99771.16;6197508;28;20465;-76
2023/11/10 02:32:32;;;;;;;4.70;2.33;;;;;;;5.55;86.00;99773.97;6193788;28;20137;-72
2023/11/10 02:35:33;;;;;;;3.95;2.08;;;;;;;5.55;86.56;99770.53;6189463;28;20043;-75
2023/11/10 02:38:35;;;;;;;4.60;2.15;;;;;;;5.48;86.30;99763.94;6196125;28;20077;-73
2023/11/10 02:41:36;;;;;;;3.33;2.10;;;;;;;5.43;86.26;99765.00;6171970;28;20101;-73
2023/11/10 02:44:37;;;;;;;4.55;1.95;;;;;;;5.36;86.30;99750.66;6186810;28;20065;-73
2023/11/10 02:47:38;;;;;;;4.38;2.10;;;;;;;5.35;86.31;99764.50;6189516;28;20519;-76
2023/11/10 02:50:39;;;;;;;2.53;1.83;;;;;;;5.31;86.35;99760.34;6177990;28;20163;-75
2023/11/10 02:53:41;;;;;;;4.95;2.20;;;;;;;5.35;86.42;99761.91;6194913;28;20050;-73
2023/11/10 02:56:42;;;;;;;3.17;2.00;;;;;;;5.36;86.43;99765.34;6198265;28;20635;-73
2023/11/10 02:59:42;;;;;;;3.55;2.28;;;;;;;5.36;86.39;99761.00;6197039;28;20354;-76
2023/11/10 03:02:43;;;;;;;4.28;2.63;;;;;;;5.37;86.28;99760.09;6182557;28;20062;-73
2023/11/10 03:05:46;;;;;;;3.17;2.05;;;;;;;5.35;86.37;99756.72;6185042;28;20489;-72
2023/11/10 03:08:48;;;;;;;3.78;2.38;;;;;;;5.29;86.56;99756.16;6195993;28;20046;-72
2023/11/10 03:11:49;;;;;;;6.00;1.92;;;;;;;5.31;86.59;99751.75;6189815;28;20101;-72
2023/11/10 03:14:50;;;;;;;5.75;2.30;;;;;;;5.24;86.66;99738.25;6181060;28;20461;-73
2023/11/10 03:17:54;;;;;;;3.80;2.40;;;;;;;5.16;86.81;99728.25;6185537;28;20268;-73
2023/11/10 03:20:55;;;;;;;3.38;2.10;;;;;;;5.14;87.46;99735.22;6188496;28;20053;-75
2023/11/10 03:23:58;;;;;;;3.47;2.42;;;;;;;5.09;87.26;99731.19;6149364;28;20098;-75
2023/11/10 03:27:01;;;;;;;3.33;2.38;;;;;;;5.07;87.32;99731.25;6181930;28;20459;-73
2023/11/10 03:30:03;;;;;;;3.92;1.95;;;;;;;4.98;87.88;99732.50;6193600;28;20125;-76
2023/11/10 03:33:04;;;;;;;6.05;3.33;;;;;;;4.89;88.34;99722.53;6185409;28;20050;-74
2023/11/10 03:36:05;;;;;;;7.57;3.17;;;;;;;4.87;88.22;99723.50;6180300;28;20047;-75
2023/11/10 03:39:08;;;;;;;8.23;3.50;;;;;;;4.88;88.82;99723.44;6178932;28;20512;-73
2023/11/10 03:42:12;;;;;;;8.90;4.15;;;;;;;4.84;88.76;99702.06;6194775;28;20066;-74
2023/11/10 03:45:13;;;;;;;6.35;3.55;;;;;;;4.85;89.41;99706.31;6197078;28;20078;-76
2023/11/10 03:48:14;;;;;;;4.63;2.88;;;;;;;4.85;88.70;99711.47;6192859;28;20145;-73
2023/11/10 03:51:14;;;;;;;7.13;3.55;;;;;;;4.82;88.85;99703.03;6189956;28;20075;-72
2023/11/10 03:54:16;;;;;;;6.53;3.20;;;;;;;4.81;88.88;99701.34;6172290;28;20110;-75
2023/11/10 03:57:17;;;;;;;4.50;2.50;;;;;;;4.81;88.20;99702.16;6184359;28;20052;-76
2023/11/10 04:00:19;;;;;;;4.88;2.22;;;;;;;4.77;89.41;99703.22;6192010;28;20113;-72
2023/11/10 04:03:20;;;;;;;7.22;3.53;;;;;;;4.78;88.94;99701.50;6191192;28;20410;-72
2023/11/10 04:06:23;;;;;;;10.88;4.97;;;;;;;4.76;89.16;99698.13;6186460;28;20101;-76
2023/11/10 04:09:24;;;;;;;8.75;4.63;;;;;;;4.70;89.58;99693.22;6187902;28;20050;-72
2023/11/10 04:12:26;;;;;;;8.37;3.10;;;;;;;4.61;89.61;99682.38;6194764;28;20489;-73
2023/11/10 04:15:27;;;;;;;5.32;3.03;;;;;;;4.62;89.63;99693.53;6190719;28;20129;-72
2023/11/10 04:18:28;;;;;;;5.18;2.80;;;;;;;4.60;89.52;99693.59;6191530;28;20046;-76
2023/11/10 04:21:31;;;;;;;6.13;3.42;;;;;;;4.62;89.23;99676.28;6194940;28;20058;-73
2023/11/10 04:24:34;;;;;;;7.53;3.47;;;;;;;4.58;89.49;99674.72;6194343;28;20266;-73
2023/11/10 04:27:36;;;;;;;8.45;3.15;;;;;;;4.61;89.14;99682.38;6189212;28;20126;-73
2023/11/10 04:30:37;;;;;;;7.43;3.13;;;;;;;4.57;89.48;99683.41;6189469;28;20587;-75
2023/11/10 04:33:38;;;;;;;4.05;2.40;;;;;;;4.56;89.62;99681.69;6189004;28;20327;-72
2023/11/10 04:36:45;;;;;;;6.18;2.92;;;;;;;4.58;89.79;99685.06;6188396;28;20069;-76
2023/11/10 04:39:52;;;;;;;9.07;4.13;;;;;;;4.57;90.00;99688.56;6164995;28;20047;-76
2023/11/10 04:42:56;;;;;;;9.70;4.88;;;;;;;4.52;90.07;99685.31;6186790;28;20485;-72
2023/11/10 04:45:59;;;;;;;9.68;5.15;;;;;;;4.47;89.96;99678.66;6188151;28;20711;-73
2023/11/10 04:49:00;;;;;;;14.63;6.22;;;;;;;4.47;89.93;99679.53;6183998;28;20054;-76
2023/11/10 04:52:01;;;;;;;11.95;5.80;;;;;;;4.44;89.72;99674.47;6180035;28;20079;-74
2023/11/10 04:55:03;;;;;;;8.85;4.35;;;;;;;4.41;90.40;99661.69;6192665;28;20047;-76
2023/11/10 04:58:04;;;;;;;9.15;3.88;;;;;;;4.33;90.68;99656.00;6178318;28;20516;-73
2023/11/10 05:01:07;;;;;;;6.03;3.42;;;;;;;4.32;90.39;99664.63;6176634;28;20054;-73
2023/11/10 05:04:12;;;;;;;10.55;3.97;;;;;;;4.30;90.13;99666.44;6189369;28;20446;-73
2023/11/10 05:07:13;;;;;;;12.07;4.97;;;;;;;4.28;90.20;99676.84;6172754;28;20050;-76
2023/11/10 05:10:16;;;;;;;10.65;5.88;;;;;;;4.23;90.43;99668.44;6170533;28;20050;-75
2023/11/10 05:13:18;;;;;;;13.00;6.43;;;;;;;4.18;91.03;99672.94;6169191;28;20053;-75
2023/11/10 05:16:22;;;;;;;12.77;6.75;;;;;;;4.19;90.36;99664.31;6170092;28;20043;-76
2023/11/10 05:19:23;;;;;;;11.98;5.70;;;;;;;4.16;90.51;99660.13;6186310;28;20047;-75
2023/11/10 05:22:23;;;;;;;10.38;5.10;;;;;;;4.24;91.18;99663.22;6170946;28;20129;-76
2023/11/10 05:25:25;;;;;;;9.02;4.93;;;;;;;4.24;90.68;99668.41;6194942;28;20057;-72
2023/11/10 05:28:26;;;;;;;12.05;5.57;;;;;;;4.25;90.90;99669.22;6193077;28;20557;-75
2023/11/10 05:31:27;;;;;;;12.20;6.43;;;;;;;4.18;90.53;99665.19;6194097;28;20069;-72
2023/11/10 05:34:27;;;;;;;12.55;6.72;;;;;;;4.20;91.10;99666.84;6193736;28;20046;-71
2023/11/10 05:37:30;;;;;;;16.05;6.82;;;;;;;4.23;91.47;99668.44;6194962;28;20044;-76
2023/11/10 05:40:31;;;;;;;13.95;7.03;;;;;;;4.16;91.10;99661.84;6186094;28;20130;-76
2023/11/10 05:43:32;;;;;;;12.57;6.07;;;;;;;4.14;91.04;99661.06;6172710;28;20050;-72
2023/11/10 05:46:36;;;;;;;15.93;5.47;;;;;;;4.17;91.50;99659.19;6169323;28;20066;-72
2023/11/10 05:49:39;;;;;;;11.48;5.47;;;;;;;4.09;91.31;99643.19;6191392;28;20050;-74
2023/11/10 05:52:39;;;;;;;13.95;5.50;;;;;;;4.14;91.53;99637.81;6195211;28;20595;-76
2023/11/10 05:55:43;;;;;;;9.48;4.93;;;;;;;4.10;91.31;99631.97;6198520;28;20053;-77
2023/11/10 05:58:47;;;;;;;15.05;4.90;;;;;;;4.09;90.42;99642.34;6199285;28;20050;-73
2023/11/10 06:01:49;;;;;;;10.35;4.97;;;;;;;4.07;90.89;99639.00;6199839;28;20050;-72
2023/11/10 06:04:49;;;;;;;8.68;4.13;;;;;;;4.08;91.45;99641.53;6198316;28;20613;-73
2023/11/10 06:07:54;;;;;;;4.82;2.92;;;;;;;4.13;91.06;99642.16;6198044;28;20101;-72
2023/11/10 06:10:57;;;;;;;4.97;2.97;;;;;;;4.10;91.90;99647.47;6197995;28;20497;-76
2023/11/10 06:14:02;;;;;;;8.00;3.70;;;;;;;4.12;91.36;99639.63;6197913;28;20240;-73
2023/11/10 06:17:03;;;;;;;10.32;4.32;;;;;;;4.03;91.35;99633.09;6198363;28;20489;-74
2023/11/10 06:20:04;;;;;;;9.10;4.20;;;;;;;4.03;91.26;99633.94;6197800;28;20517;-76
2023/11/10 06:23:05;;;;;;;12.77;6.17;;;;;;;4.10;91.26;99634.56;6198491;28;20055;-76
2023/11/10 06:26:07;;;;;;;11.82;6.60;;;;;;;4.16;91.02;99638.59;6198107;28;20043;-76
2023/11/10 06:29:08;;;;;;;13.30;7.18;;;;;;;4.16;90.62;99631.72;6191842;28;20634;-76
2023/11/10 06:32:12;;;;;;;36.72;17.65;;;;;;;4.26;90.92;99639.06;6198653;28;20062;-73
2023/11/10 06:35:12;;;;;;;23.65;13.40;;;;;;;4.32;89.56;99643.97;6198752;28;20489;-76
2023/11/10 06:38:13;;;;;;;11.63;6.57;;;;;;;4.35;88.63;99660.19;6198776;28;20050;-74
2023/11/10 06:41:14;;;;;;;11.55;5.43;;;;;;;4.52;87.58;99654.31;6198306;28;20050;-76
2023/11/10 06:44:19;;;;;;;8.48;5.05;;;;;;;4.71;87.18;99653.53;6197099;28;20054;-74
2023/11/10 06:47:20;;;;;;;27.65;12.35;;;;;;;4.86;86.47;99650.28;6196955;28;20058;-74
2023/11/10 06:50:21;;;;;;;25.88;13.10;;;;;;;5.03;86.08;99655.53;6198086;28;20058;-77
2023/11/10 06:53:22;;;;;;;22.10;8.77;;;;;;;5.06;85.48;99641.63;6198213;28;20054;-73
2023/11/10 06:56:25;;;;;;;17.88;8.05;;;;;;;5.28;85.58;99638.09;6197943;28;20046;-76
2023/11/10 06:59:29;;;;;;;18.67;8.77;;;;;;;5.45;85.07;99646.72;6197948;28;20520;-76
2023/11/10 07:02:30;;;;;;;13.90;7.40;;;;;;;5.62;84.03;99647.69;6196543;28;20437;-74
2023/11/10 07:05:31;;;;;;;10.75;4.82;;;;;;;5.74;82.80;99643.69;6197181;28;20050;-73
2023/11/10 07:08:33;;;;;;;15.80;3.78;;;;;;;5.90;80.83;99642.06;6197841;28;20343;-76
2023/11/10 07:11:34;;;;;;;7.00;3.20;;;;;;;6.14;79.76;99647.84;6196587;28;20499;-76
2023/11/10 07:14:36;;;;;;;10.10;3.80;;;;;;;6.31;78.69;99640.97;6197592;28;20096;-76
2023/11/10 07:17:37;;;;;;;5.55;3.17;;;;;;;6.43;79.24;99633.41;6197921;28;20053;-73
2023/11/10 07:20:42;;;;;;;8.27;2.88;;;;;;;6.66;78.00;99631.41;6196352;28;20054;-72
2023/11/10 07:23:44;;;;;;;4.13;2.70;;;;;;;6.66;77.08;99628.81;6197739;28;20054;-73
2023/11/10 07:26:45;;;;;;;3.88;2.33;;;;;;;6.52;77.63;99615.72;6197368;28;20517;-73
2023/11/10 07:29:50;;;;;;;6.55;3.13;;;;;;;6.56;77.61;99628.44;6197258;28;20060;-73
2023/11/10 07:32:54;;;;;;;5.80;3.65;;;;;;;6.38;78.65;99617.28;6184904;28;20082;-73
2023/11/10 07:35:55;;;;;;;19.83;10.77;;;;;;;6.39;78.99;99621.53;6171583;28;20042;-75
2023/11/10 07:39:01;;;;;;;15.63;7.95;;;;;;;6.42;79.80;99618.78;6173239;28;20509;-74
2023/11/10 07:42:03;;;;;;;9.50;4.68;;;;;;;6.54;79.78;99621.66;6171360;28;20051;-76
2023/11/10 07:45:04;;;;;;;7.88;3.90;;;;;;;6.53;79.49;99609.63;6172890;28;20079;-72
2023/11/10 07:48:05;;;;;;;10.23;4.35;;;;;;;6.62;79.80;99612.56;6172535;28;20453;-72
2023/11/10 07:51:06;;;;;;;14.88;5.25;;;;;;;6.68;80.52;99618.38;6172836;28;20118;-72
2023/11/10 07:54:07;;;;;;;12.98;6.63;;;;;;;6.77;80.77;99610.94;6172611;28;20054;-73
2023/11/10 07:57:08;;;;;;;9.45;4.90;;;;;;;6.92;79.25;99621.41;6172235;28;20054;-74
2023/11/10 08:00:13;;;;;;;7.15;4.00;;;;;;;7.13;78.97;99609.91;6171265;28;20057;-76
2023/11/10 08:03:17;;;;;;;11.88;3.80;;;;;;;7.26;77.48;99610.06;6172376;28;20051;-73
2023/11/10 08:06:21;;;;;;;6.45;3.65;;;;;;;7.40;77.16;99604.16;6171000;28;20399;-74
2023/11/10 08:09:21;;;;;;;10.80;4.43;;;;;;;7.55;76.05;99598.09;6171053;28;20402;-73
2023/11/10 08:12:23;;;;;;;8.38;4.22;;;;;;;7.56;74.61;99591.16;6171084;28;20054;-72
2023/11/10 08:15:24;;;;;;;9.45;4.47;;;;;;;7.66;74.49;99598.34;6172053;28;20082;-76
2023/11/10 08:18:25;;;;;;;7.25;3.92;;;;;;;7.86;74.43;99605.00;6171383;28;20054;-74
2023/11/10 08:21:28;;;;;;;7.85;4.38;;;;;;;8.07;75.08;99600.34;6170829;28;20047;-77
2023/11/10 08:24:32;;;;;;;5.22;3.70;;;;;;;8.28;75.56;99593.06;6171006;28;20098;-72
2023/11/10 08:27:33;;;;;;;7.28;4.03;;;;;;;8.31;74.38;99581.63;6170544;28;20580;-77
2023/11/10 08:30:35;;;;;;;6.25;3.58;;;;;;;8.43;73.85;99588.72;6170698;28;20399;-73
2023/11/10 08:33:38;;;;;;;8.07;4.28;;;;;;;8.56;72.72;99595.81;6170559;28;20124;-73
2023/11/10 08:36:39;;;;;;;8.90;3.65;;;;;;;8.69;72.43;99591.56;6171600;28;20505;-76
2023/11/10 08:39:40;;;;;;;7.93;4.60;;;;;;;8.70;73.04;99588.00;6171887;28;20051;-73
2023/11/10 08:42:41;;;;;;;12.73;5.63;;;;;;;8.75;72.73;99585.97;6171399;28;20055;-75
2023/11/10 08:45:42;;;;;;;10.25;5.22;;;;;;;8.73;73.74;99590.44;6170274;28;20057;-76
2023/11/10 08:48:43;;;;;;;12.07;5.60;;;;;;;8.87;73.73;99595.63;6170351;28;20046;-76
2023/11/10 08:51:48;;;;;;;22.10;9.77;;;;;;;8.88;71.77;99583.44;6171535;28;20117;-73
2023/11/10 08:54:49;;;;;;;14.43;6.18;;;;;;;9.02;71.21;99582.63;6170311;28;20055;-73
2023/11/10 08:57:50;;;;;;;16.90;6.88;;;;;;;9.11;71.38;99579.41;6170261;28;20055;-73
2023/11/10 09:00:52;;;;;;;11.18;5.05;;;;;;;9.23;71.16;99583.84;6171166;28;20481;-76
2023/11/10 09:03:53;;;;;;;8.20;3.60;;;;;;;9.28;71.46;99573.97;6170049;28;20071;-73
2023/11/10 09:06:54;;;;;;;8.57;4.00;;;;;;;9.29;70.50;99574.84;6171276;28;20131;-76
2023/11/10 09:09:58;;;;;;;12.10;5.35;;;;;;;9.31;70.61;99564.31;6169508;28;20454;-76
2023/11/10 09:12:58;;;;;;;14.32;6.15;;;;;;;9.45;71.80;99557.31;6147373;28;20458;-76
2023/11/10 09:16:00;;;;;;;9.43;4.13;;;;;;;9.44;69.92;99555.63;6147320;28;20058;-76
2023/11/10 09:19:02;;;;;;;;;;;;;;;9.49;69.86;99560.53;6146434;28;20047;-73
2023/11/10 09:22:03;;;;;;;4.88;2.90;;;;;;;9.51;69.19;99568.25;6147045;28;19981;-73
2023/11/10 09:25:05;;;;;;;9.90;4.53;;;;;;;9.56;71.25;99558.38;6147065;28;20046;-74
2023/11/10 09:28:06;;;;;;;7.80;3.40;;;;;;;9.51;70.24;99552.63;6179073;28;20090;-76
2023/11/10 09:31:07;;;;;;;8.88;3.08;;;;;;;9.49;71.57;99552.72;6182933;28;20458;-73
2023/11/10 09:34:08;;;;;;;6.15;2.92;;;;;;;9.52;71.64;99543.88;6182801;28;20102;-72
2023/11/10 09:37:09;;;;;;;4.75;2.75;;;;;;;9.55;72.44;99549.72;6182403;28;20054;-73
2023/11/10 09:40:11;;;;;;;6.88;3.22;;;;;;;9.52;72.62;99542.09;6151626;28;20490;-77
2023/11/10 09:43:15;;;;;;;12.25;5.32;;;;;;;9.54;71.81;99542.84;6150339;28;20491;-76
2023/11/10 09:46:18;;;;;;;18.77;8.50;;;;;;;9.49;72.39;99529.28;6151503;28;20052;-76
2023/11/10 09:49:19;;;;;;;20.13;9.35;;;;;;;9.54;72.59;99529.81;6182474;28;20138;-76
2023/11/10 09:52:21;;;;;;;15.77;7.40;;;;;;;9.52;73.38;99526.47;6151669;28;20066;-73
2023/11/10 09:55:22;;;;;;;16.80;7.30;;;;;;;9.57;73.24;99520.97;6151273;28;20078;-73
2023/11/10 09:58:24;;;;;;;8.50;4.15;;;;;;;9.58;73.46;99515.66;6151473;28;20059;-73
2023/11/10 10:01:26;;;;;;;8.25;3.67;;;;;;;9.52;73.32;99508.25;6151368;28;20051;-73
2023/11/10 10:04:28;;;;;;;9.73;4.70;;;;;;;9.60;74.29;99498.16;6182329;28;20055;-73
2023/11/10 10:07:29;;;;;;;15.48;4.25;;;;;;;9.58;73.95;99494.00;6151600;28;20163;-74
2023/11/10 10:10:31;;;;;;;21.70;8.93;;;;;;;9.60;74.30;99485.16;6181960;28;20047;-73
2023/11/10 10:13:32;;;;;;;43.70;16.80;;;;;;;9.59;74.66;99480.84;6150977;28;20055;-73
2023/11/10 10:16:38;;;;;;;31.25;10.35;;;;;;;9.64;73.49;99476.19;6181540;28;20063;-73
2023/11/10 10:19:39;;;;;;;22.85;8.70;;;;;;;9.67;73.64;99473.38;6150928;28;20130;-73
2023/11/10 10:22:48;;;;;;;13.70;6.43;;;;;;;9.71;73.63;99474.00;6181844;28;20110;-72
2023/11/10 10:25:49;;;;;;;19.67;7.68;;;;;;;9.83;73.67;99465.38;6181639;28;20654;-72
2023/11/10 10:28:50;;;;;;;17.75;6.35;;;;;;;9.85;73.02;99465.28;6150575;28;20067;-72
2023/11/10 10:31:51;;;;;;;12.85;5.85;;;;;;;9.89;74.20;99464.13;6150482;28;20491;-75
2023/11/10 10:34:52;;;;;;;20.08;5.78;;;;;;;10.00;72.86;99466.81;6149248;29;20426;-72
2023/11/10 10:38:04;;;;;;;9.63;4.28;;;;;;;10.01;71.51;99458.09;6181229;28;20054;-72
2023/11/10 10:41:05;;;;;;;18.83;4.22;;;;;;;10.06;71.61;99453.38;6149445;28;20290;-73
2023/11/10 10:44:08;;;;;;;10.25;3.80;;;;;;;9.98;70.49;99442.66;6149284;29;20051;-72
2023/11/10 10:47:09;;;;;;;7.85;2.92;;;;;;;10.05;71.07;99436.09;6149947;28;20081;-73
2023/11/10 10:50:11;;;;;;;10.15;3.40;;;;;;;10.13;70.95;99419.94;6150040;28;20413;-72
2023/11/10 10:53:14;;;;;;;10.97;3.60;;;;;;;10.27;71.13;99417.19;6181136;28;20486;-73
2023/11/10 10:56:18;;;;;;;8.30;4.00;;;;;;;10.34;71.64;99403.75;6149748;28;20396;-76
2023/11/10 10:59:20;;;;;;;6.53;3.33;;;;;;;10.53;71.14;99408.50;6149983;28;20059;-73
2023/11/10 11:02:23;;;;;;;9.20;4.45;;;;;;;10.73;70.82;99410.53;6149870;28;20070;-75
2023/11/10 11:05:36;;;;;;;11.43;4.20;;;;;;;10.84;67.78;99401.91;6150305;28;20054;-75
2023/11/10 11:08:50;;;;;;;8.98;3.92;;;;;;;11.01;67.93;99401.50;6149685;28;20482;-72
2023/11/10 11:12:08;;;;;;;12.55;4.63;;;;;;;10.97;69.00;99405.28;6180942;28;20054;-75
2023/11/10 11:15:12;;;;;;;10.93;4.88;;;;;;;11.11;70.15;99399.06;6180643;28;20482;-76
2023/11/10 11:18:39;;;;;;;9.32;4.10;;;;;;;11.27;68.80;99386.53;6149625;28;20055;-75
2023/11/10 11:21:40;;;;;;;15.18;4.40;;;;;;;11.33;67.38;99384.44;6180984;28;20134;-75
2023/11/10 11:24:44;;;;;;;16.42;4.70;;;;;;;11.29;67.39;99387.25;6149461;28;20073;-73
2023/11/10 11:27:55;;;;;;;16.63;7.57;;;;;;;11.32;69.67;99382.75;6149099;28;20048;-73
2023/11/10 11:31:11;;;;;;;12.50;5.28;;;;;;;11.27;67.51;99364.81;6180309;28;20059;-75
2023/11/10 11:34:16;;;;;;;12.57;6.10;;;;;;;11.39;65.68;99371.72;6149615;28;20074;-75
2023/11/10 11:37:17;;;;;;;15.02;6.45;;;;;;;11.39;67.27;99365.69;6148930;28;20422;-72
2023/11/10 11:40:17;;;;;;;13.40;5.93;;;;;;;11.39;67.15;99365.69;6147814;28;20058;-73
2023/11/10 11:43:25;;;;;;;14.40;5.57;;;;;;;11.38;66.78;99358.78;6149005;28;20062;-73
2023/11/10 11:46:34;;;;;;;9.70;4.95;;;;;;;11.41;68.05;99353.34;6148782;28;20051;-73
2023/11/10 11:49:35;;;;;;;15.52;5.75;;;;;;;11.43;69.48;99362.72;6148613;29;20062;-73
2023/11/10 11:52:36;;;;;;;8.07;4.28;;;;;;;11.42;68.05;99355.81;6147422;28;20422;-75
2023/11/10 11:55:37;;;;;;;11.30;3.90;;;;;;;11.35;66.20;99349.41;6147654;28;20043;-75
2023/11/10 11:58:39;;;;;;;12.50;6.28;;;;;;;11.40;67.55;99362.94;6179264;28;20490;-75
2023/11/10 12:01:40;;;;;;;15.50;7.95;;;;;;;11.21;69.07;99350.44;6148693;28;20058;-75
2023/11/10 12:04:41;;;;;;;10.88;5.68;;;;;;;11.22;69.40;99346.88;6147251;29;20051;-72
2023/11/10 12:07:42;;;;;;;15.80;6.85;;;;;;;11.28;67.67;99341.22;6148839;28;20050;-73
2023/11/10 12:10:45;;;;;;;30.80;10.13;;;;;;;11.32;68.42;99340.97;6148287;28;20498;-73
2023/11/10 12:13:46;;;;;;;17.98;7.53;;;;;;;11.29;68.04;99332.41;6148461;28;20106;-73
2023/11/10 12:16:51;;;;;;;;;;;;;;;11.29;67.27;99329.78;6148753;28;20110;-73
2023/11/10 12:19:53;;;;;;;7.65;3.70;;;;;;;11.27;67.35;99329.09;6146729;29;19944;-72
2023/11/10 12:22:55;;;;;;;16.67;5.82;;;;;;;11.33;68.75;99327.78;6148352;28;20047;-75
2023/11/10 12:25:57;;;;;;;16.15;7.22;;;;;;;11.35;67.80;99317.25;6146844;28;20088;-75
2023/11/10 12:28:58;;;;;;;12.43;4.75;;;;;;;11.35;68.21;99317.25;6178969;28;20400;-73
2023/11/10 12:32:00;;;;;;;11.63;4.53;;;;;;;11.36;68.48;99313.66;6148291;28;20466;-75
2023/11/10 12:35:03;;;;;;;13.95;4.97;;;;;;;11.35;69.29;99299.78;6148081;28;20051;-72
2023/11/10 12:38:05;;;;;;;8.57;4.18;;;;;;;11.34;69.25;99297.28;6147675;28;20065;-72
2023/11/10 12:41:10;;;;;;;14.55;6.55;;;;;;;11.26;69.99;99292.63;6146639;28;20557;-76
2023/11/10 12:44:15;;;;;;;11.93;5.47;;;;;;;11.19;68.98;99287.03;6146518;28;20062;-73
2023/11/10 12:47:17;;;;;;;18.58;5.47;;;;;;;11.18;68.39;99280.19;6147537;28;20094;-72
2023/11/10 12:50:22;;;;;;;13.70;5.38;;;;;;;11.06;69.09;99273.28;6146212;29;20418;-75
2023/11/10 12:53:23;;;;;;;10.25;5.15;;;;;;;11.05;68.52;99266.38;6147757;28;20130;-72
2023/11/10 12:56:24;;;;;;;8.63;5.32;;;;;;;10.97;68.69;99280.00;6146433;28;20391;-73
2023/11/10 12:59:31;;;;;;;14.63;6.30;;;;;;;10.98;69.28;99273.00;6178252;28;20057;-75
2023/11/10 13:02:31;;;;;;;10.88;5.00;;;;;;;10.96;69.35;99267.91;6145715;28;20158;-75
2023/11/10 13:05:34;;;;;;;15.82;5.35;;;;;;;10.94;69.45;99261.13;6147444;28;20047;-75
2023/11/10 13:08:35;;;;;;;10.95;5.80;;;;;;;10.87;69.26;99258.13;6178319;28;20047;-75
2023/11/10 13:11:36;;;;;;;15.70;7.15;;;;;;;10.84;70.42;99251.38;6147382;28;20118;-73
2023/11/10 13:14:37;;;;;;;13.00;4.60;;;;;;;10.79;69.70;99243.06;6147512;28;20063;-76
2023/11/10 13:17:39;;;;;;;12.43;4.20;;;;;;;10.68;69.54;99248.25;6178035;28;20047;-72
2023/11/10 13:20:42;;;;;;;11.90;4.00;;;;;;;10.67;68.39;99238.75;6147355;28;20383;-75
2023/11/10 13:23:45;;;;;;;14.68;4.50;;;;;;;10.60;69.30;99237.53;6146006;28;20055;-75
2023/11/10 13:26:47;;;;;;;13.00;4.50;;;;;;;10.62;68.23;99233.88;6147343;28;20063;-76
2023/11/10 13:29:48;;;;;;;9.68;4.75;;;;;;;10.54;68.66;99217.94;6147250;28;20057;-75
2023/11/10 13:32:49;;;;;;;12.75;6.78;;;;;;;10.63;69.73;99217.28;6178025;28;20059;-75
2023/11/10 13:35:50;;;;;;;13.25;5.97;;;;;;;10.54;69.01;99217.94;6146952;28;20051;-72
2023/11/10 13:38:52;;;;;;;17.33;5.10;;;;;;;10.44;71.54;99207.41;6177811;28;20458;-72
2023/11/10 13:41:53;;;;;;;8.50;4.43;;;;;;;10.47;70.25;99199.31;6146960;28;20418;-72
2023/11/10 13:44:56;;;;;;;7.40;3.70;;;;;;;10.48;70.32;99202.78;6146964;28;20187;-72
2023/11/10 13:47:59;;;;;;;13.70;3.72;;;;;;;10.42;70.62;99195.41;6145643;28;20082;-73
2023/11/10 13:51:00;;;;;;;9.63;4.68;;;;;;;10.42;71.07;99198.84;6146814;28;20051;-72
2023/11/10 13:54:01;;;;;;;10.43;5.30;;;;;;;10.41;71.07;99201.56;6146902;28;20507;-73
2023/11/10 13:57:02;;;;;;;11.10;5.18;;;;;;;10.38;72.90;99205.25;6147305;28;20308;-75
2023/11/10 14:00:11;;;;;;;10.23;4.60;;;;;;;10.37;71.54;99189.69;6145458;28;20051;-75
2023/11/10 14:03:12;;;;;;;8.48;4.25;;;;;;;10.24;71.19;99177.53;6146721;28;20422;-75
2023/11/10 14:06:13;;;;;;;6.97;4.18;;;;;;;10.31;72.82;99175.31;6146675;28;20090;-72
2023/11/10 14:09:15;;;;;;;15.77;4.47;;;;;;;10.16;72.64;99184.25;6146490;28;20422;-75
2023/11/10 14:12:21;;;;;;;5.72;3.38;;;;;;;10.16;72.49;99177.25;6145223;29;20134;-76
2023/11/10 14:15:22;;;;;;;8.73;4.30;;;;;;;10.14;72.91;99165.28;6149714;28;20058;-75
2023/11/10 14:18:23;;;;;;;9.95;4.18;;;;;;;10.20;72.89;99167.44;6181795;28;20055;-75
2023/11/10 14:21:24;;;;;;;9.57;4.63;;;;;;;10.18;73.34;99164.94;6149747;29;20095;-75